Time;durP1;ratioP1;P1;durP2;ratioP2;P2;SDS_P1;SDS_P2;PMS_P1;PMS_P2;Temp;Humidity;BMP_temperature;BMP_pressure;BME280_temperature;BME280_humidity;BME280_pressure;Samples;Min_cycle;Max_cycle;Signal;HPM_P1;HPM_P2
2023/08/15 00:00:15;;;;;;;;;;;23.20;99.90;;;;;;2058211;28;19922;-72
2023/08/15 00:01:16;;;;;;;;;;;23.20;99.90;;;;;;2054857;28;20408;-72
2023/08/15 00:02:16;;;;;;;;;;;23.10;99.90;;;;;;2056270;28;19956;-72
2023/08/15 00:03:17;;;;;;;;;;;23.10;99.90;;;;;;2059080;28;19918;-73
2023/08/15 00:04:17;;;;;;;;;;;23.00;99.90;;;;;;2058100;28;19913;-72
2023/08/15 00:05:17;;;;;;;;;;;22.90;99.90;;;;;;2056702;28;20340;-73
2023/08/15 00:06:34;;;;;;;;;;;22.90;99.90;;;;;;2054266;28;20016;-73
2023/08/15 00:07:34;;;;;;;;;;;22.90;99.90;;;;;;2060962;28;19914;-73
2023/08/15 00:08:35;;;;;;;;;;;22.80;99.90;;;;;;2058370;28;20262;-72
2023/08/15 00:09:35;;;;;;;;;;;22.80;99.90;;;;;;2058157;28;23254;-73
2023/08/15 00:10:36;;;;;;;;;;;22.80;99.90;;;;;;2054079;28;20654;-72
2023/08/15 00:11:36;;;;;;;;;;;22.70;99.90;;;;;;2053384;28;20009;-73
2023/08/15 00:12:37;;;;;;;;;;;22.70;99.90;;;;;;2052136;28;19918;-73
2023/08/15 00:13:37;;;;;;;;;;;22.60;99.90;;;;;;2048396;28;20471;-73
2023/08/15 00:14:38;;;;;;;;;;;22.60;99.90;;;;;;2054914;28;19914;-71
2023/08/15 00:15:38;;;;;;;;;;;22.60;99.90;;;;;;2057163;28;19914;-72
2023/08/15 00:16:39;;;;;;;;;;;22.60;99.90;;;;;;2056062;28;20432;-71
2023/08/15 00:17:39;;;;;;;;;;;22.60;99.90;;;;;;2058455;28;19918;-72
2023/08/15 00:18:40;;;;;;;;;;;22.50;99.90;;;;;;2058961;28;19918;-71
2023/08/15 00:19:40;;;;;;;;;;;22.50;99.90;;;;;;2058810;28;20007;-72
2023/08/15 00:20:41;;;;;;;;;;;22.50;99.90;;;;;;2059178;28;19918;-72
2023/08/15 00:21:41;;;;;;;;;;;22.50;99.90;;;;;;2058604;28;19988;-72
2023/08/15 00:22:42;;;;;;;;;;;22.50;99.90;;;;;;2052119;28;19953;-73
2023/08/15 00:23:42;;;;;;;;;;;22.50;99.90;;;;;;2057956;28;19914;-74
2023/08/15 00:24:43;;;;;;;;;;;22.40;99.90;;;;;;2059306;28;19917;-72
2023/08/15 00:25:44;;;;;;;;;;;22.40;99.90;;;;;;2061604;28;19922;-73
2023/08/15 00:26:44;;;;;;;;;;;22.30;99.90;;;;;;2059396;28;19914;-73
2023/08/15 00:27:45;;;;;;;;;;;22.30;99.90;;;;;;2059221;28;20028;-73
2023/08/15 00:28:45;;;;;;;;;;;22.30;99.90;;;;;;2058992;28;19944;-73
2023/08/15 00:29:46;;;;;;;;;;;22.30;99.90;;;;;;2058800;28;19933;-73
2023/08/15 00:30:46;;;;;;;;;;;22.30;99.90;;;;;;2051728;28;20365;-73
2023/08/15 00:31:47;;;;;;;;;;;22.20;99.90;;;;;;2047108;28;20408;-72
2023/08/15 00:32:48;;;;;;;;;;;22.20;99.90;;;;;;2057871;28;20514;-73
2023/08/15 00:33:48;;;;;;;;;;;22.20;99.90;;;;;;2044791;28;19915;-72
2023/08/15 00:34:49;;;;;;;;;;;22.20;99.90;;;;;;2048382;28;19922;-72
2023/08/15 00:35:49;;;;;;;;;;;22.20;99.90;;;;;;2058487;28;19918;-73
2023/08/15 00:36:50;;;;;;;;;;;22.20;99.90;;;;;;2058994;28;20403;-73
2023/08/15 00:37:50;;;;;;;;;;;22.10;99.90;;;;;;2049460;28;19958;-72
2023/08/15 00:38:51;;;;;;;;;;;22.10;99.90;;;;;;2051739;28;19933;-71
2023/08/15 00:39:51;;;;;;;;;;;22.10;99.90;;;;;;2045262;28;20369;-72
2023/08/15 00:40:52;;;;;;;;;;;22.00;99.90;;;;;;2050063;28;19926;-73
2023/08/15 00:41:54;;;;;;;;;;;22.00;99.90;;;;;;2058709;28;19994;-72
2023/08/15 00:42:54;;;;;;;;;;;22.00;99.90;;;;;;2060100;28;19997;-72
2023/08/15 00:43:56;;;;;;;;;;;22.00;99.90;;;;;;2049956;28;20398;-71
2023/08/15 00:44:56;;;;;;;;;;;22.00;99.90;;;;;;2050068;28;20069;-72
2023/08/15 00:45:59;;;;;;;;;;;22.00;99.90;;;;;;2050095;28;20057;-73
2023/08/15 00:46:59;;;;;;;;;;;22.00;99.90;;;;;;2051105;28;19921;-71
2023/08/15 00:48:00;;;;;;;;;;;21.90;99.90;;;;;;2054823;28;20340;-72
2023/08/15 00:49:01;;;;;;;;;;;21.90;99.90;;;;;;2051845;28;20393;-72
2023/08/15 00:50:02;;;;;;;;;;;21.90;99.90;;;;;;2058021;28;19917;-71
2023/08/15 00:51:02;;;;;;;;;;;21.90;99.90;;;;;;2059129;28;19914;-72
2023/08/15 00:52:03;;;;;;;;;;;21.90;99.90;;;;;;2060144;28;19921;-72
2023/08/15 00:53:04;;;;;;;;;;;21.90;99.90;;;;;;2059902;28;19917;-72
2023/08/15 00:54:06;;;;;;;;;;;21.90;99.90;;;;;;2058955;28;19914;-72
2023/08/15 00:55:07;;;;;;;;;;;21.80;99.90;;;;;;2058132;28;19925;-72
2023/08/15 00:56:08;;;;;;;;;;;21.80;99.90;;;;;;2058825;28;19914;-71
2023/08/15 00:57:10;;;;;;;;;;;21.80;99.90;;;;;;2059767;28;19941;-72
2023/08/15 00:58:10;;;;;;;;;;;21.80;99.90;;;;;;2050110;28;19972;-73
2023/08/15 00:59:11;;;;;;;;;;;21.80;99.90;;;;;;2058308;28;19925;-73
2023/08/15 01:00:12;;;;;;;;;;;21.80;99.90;;;;;;2061272;28;19918;-73
2023/08/15 01:01:14;;;;;;;;;;;21.80;99.90;;;;;;2052331;28;19965;-72
2023/08/15 01:02:15;;;;;;;;;;;21.80;99.90;;;;;;2049720;28;19918;-73
2023/08/15 01:03:16;;;;;;;;;;;21.80;99.90;;;;;;2056868;28;19965;-72
2023/08/15 01:04:17;;;;;;;;;;;21.70;99.90;;;;;;2056879;28;20388;-72
2023/08/15 01:05:18;;;;;;;;;;;21.70;99.90;;;;;;2057970;28;19914;-72
2023/08/15 01:06:18;;;;;;;;;;;21.70;99.90;;;;;;2057021;28;20443;-72
2023/08/15 01:07:21;;;;;;;;;;;21.70;99.90;;;;;;2056311;28;20005;-72
2023/08/15 01:08:21;;;;;;;;;;;21.70;99.90;;;;;;2057080;28;19925;-72
2023/08/15 01:09:22;;;;;;;;;;;21.70;99.90;;;;;;2048808;28;19926;-72
2023/08/15 01:10:22;;;;;;;;;;;21.60;99.90;;;;;;2045927;28;19994;-72
2023/08/15 01:11:24;;;;;;;;;;;21.60;99.90;;;;;;2065770;28;20360;-73
2023/08/15 01:12:27;;;;;;;;;;;21.60;99.90;;;;;;2050020;28;20178;-73
2023/08/15 01:13:31;;;;;;;;;;;21.60;99.90;;;;;;2043972;28;19919;-73
2023/08/15 01:14:40;;;;;;;;;;;21.60;99.90;;;;;;2052724;28;19918;-72
2023/08/15 01:15:45;;;;;;;;;;;21.60;99.90;;;;;;2056699;28;19917;-72
2023/08/15 01:16:48;;;;;;;;;;;21.60;99.90;;;;;;2056255;28;20420;-72
2023/08/15 01:17:58;;;;;;;;;;;21.50;99.90;;;;;;2058262;28;20000;-73
2023/08/15 01:19:06;;;;;;;;;;;21.60;99.90;;;;;;2053700;28;19918;-80
2023/08/15 01:20:08;;;;;;;;;;;21.50;99.90;;;;;;2058558;28;19918;-83
2023/08/15 01:21:11;;;;;;;;;;;21.50;99.90;;;;;;2056341;28;19918;-83
2023/08/15 01:22:16;;;;;;;;;;;21.50;99.90;;;;;;2057653;28;19928;-81
2023/08/15 01:23:18;;;;;;;;;;;21.50;99.90;;;;;;2058419;28;19941;-82
2023/08/15 01:24:19;;;;;;;;;;;21.50;99.90;;;;;;2058742;28;20093;-81
2023/08/15 01:25:19;;;;;;;;;;;21.40;99.90;;;;;;2055885;28;21393;-82
2023/08/15 01:26:20;;;;;;;;;;;21.40;99.90;;;;;;2056585;28;19917;-82
2023/08/15 01:27:20;;;;;;;;;;;21.50;99.90;;;;;;2058427;28;20576;-80
2023/08/15 01:28:21;;;;;;;;;;;21.40;99.90;;;;;;2059990;28;19929;-82
2023/08/15 01:29:22;;;;;;;;;;;21.40;99.90;;;;;;2058000;28;19925;-82
2023/08/15 01:30:23;;;;;;;;;;;21.40;99.90;;;;;;2050370;28;20017;-82
2023/08/15 01:31:32;;;;;;;;;;;21.40;99.90;;;;;;2055648;28;19926;-82
2023/08/15 01:32:33;;;;;;;;;;;21.40;99.90;;;;;;2058516;28;20045;-81
2023/08/15 01:33:38;;;;;;;;;;;21.40;99.90;;;;;;2051145;28;21408;-81
2023/08/15 01:34:44;;;;;;;;;;;21.30;99.90;;;;;;2044778;28;19965;-81
2023/08/15 01:35:46;;;;;;;;;;;21.30;99.90;;;;;;2047580;28;20393;-82
2023/08/15 01:36:56;;;;;;;;;;;21.30;99.90;;;;;;2045106;28;19914;-82
2023/08/15 01:38:00;;;;;;;;;;;21.30;99.90;;;;;;2050240;28;19922;-81
2023/08/15 01:39:03;;;;;;;;;;;21.20;99.90;;;;;;2056364;28;19917;-82
2023/08/15 01:40:05;;;;;;;;;;;21.20;99.90;;;;;;2058752;28;19918;-81
2023/08/15 01:41:09;;;;;;;;;;;21.20;99.90;;;;;;2058154;28;19918;-78
2023/08/15 01:42:10;;;;;;;;;;;21.20;99.90;;;;;;2052582;28;19918;-82
2023/08/15 01:43:13;;;;;;;;;;;21.20;99.90;;;;;;2042507;28;19923;-82
2023/08/15 01:44:13;;;;;;;;;;;21.20;99.90;;;;;;2057807;28;19910;-82
2023/08/15 01:45:14;;;;;;;;;;;21.20;99.90;;;;;;2060075;28;19923;-82
2023/08/15 01:46:15;;;;;;;;;;;21.10;99.90;;;;;;2055776;28;19917;-82
2023/08/15 01:47:15;;;;;;;;;;;21.10;99.90;;;;;;2058255;28;20395;-82
2023/08/15 01:48:16;;;;;;;;;;;21.10;99.90;;;;;;2058302;28;19928;-82
2023/08/15 01:49:16;;;;;;;;;;;21.10;99.90;;;;;;2050078;28;20547;-81
2023/08/15 01:50:17;;;;;;;;;;;21.10;99.90;;;;;;2051954;28;20113;-84
2023/08/15 01:51:17;;;;;;;;;;;21.10;99.90;;;;;;2049366;28;19969;-82
2023/08/15 01:52:18;;;;;;;;;;;21.00;99.90;;;;;;2055196;28;20525;-81
2023/08/15 01:53:19;;;;;;;;;;;21.00;99.90;;;;;;2056174;28;19941;-81
2023/08/15 01:54:20;;;;;;;;;;;21.00;99.90;;;;;;2050092;28;20329;-82
2023/08/15 01:55:20;;;;;;;;;;;21.10;99.90;;;;;;2058301;28;20000;-82
2023/08/15 01:56:21;;;;;;;;;;;21.10;99.90;;;;;;2057746;28;19917;-82
2023/08/15 01:57:22;;;;;;;;;;;21.00;99.90;;;;;;2055421;28;20056;-82
2023/08/15 01:58:22;;;;;;;;;;;21.00;99.90;;;;;;2049917;28;19910;-82
2023/08/15 01:59:23;;;;;;;;;;;21.00;99.90;;;;;;2052316;28;19922;-81
2023/08/15 02:00:23;;;;;;;;;;;21.00;99.90;;;;;;2060289;28;19918;-82
2023/08/15 02:01:24;;;;;;;;;;;21.00;99.90;;;;;;2062844;28;20153;-81
2023/08/15 02:02:28;;;;;;;;;;;21.00;99.90;;;;;;2055574;28;19917;-81
2023/08/15 02:03:30;;;;;;;;;;;21.00;99.90;;;;;;2056404;28;19922;-81
2023/08/15 02:04:30;;;;;;;;;;;21.00;99.90;;;;;;2052092;28;19922;-81
2023/08/15 02:05:31;;;;;;;;;;;20.90;99.90;;;;;;2061342;28;19928;-81
2023/08/15 02:06:31;;;;;;;;;;;21.00;99.90;;;;;;2058282;28;20371;-81
2023/08/15 02:07:32;;;;;;;;;;;20.90;99.90;;;;;;2046553;28;20374;-82
2023/08/15 02:08:32;;;;;;;;;;;20.90;99.90;;;;;;2051390;28;19966;-81
2023/08/15 02:09:36;;;;;;;;;;;20.90;99.90;;;;;;2057545;28;20377;-82
2023/08/15 02:10:37;;;;;;;;;;;20.90;99.90;;;;;;2037163;29;19968;-82
2023/08/15 02:11:40;;;;;;;;;;;20.90;99.90;;;;;;2040106;28;19914;-82
2023/08/15 02:12:41;;;;;;;;;;;20.80;99.90;;;;;;2039081;29;19962;-81
2023/08/15 02:13:41;;;;;;;;;;;20.80;99.90;;;;;;2050928;28;20154;-81
2023/08/15 02:14:42;;;;;;;;;;;20.80;99.90;;;;;;2051602;28;20413;-82
2023/08/15 02:15:42;;;;;;;;;;;20.80;99.90;;;;;;2047351;28;19997;-81
2023/08/15 02:16:43;;;;;;;;;;;20.80;99.90;;;;;;2051357;28;20009;-80
2023/08/15 02:17:43;;;;;;;;;;;20.80;99.90;;;;;;2043781;28;19915;-81
2023/08/15 02:18:47;;;;;;;;;;;20.80;99.90;;;;;;2049632;28;20461;-83
2023/08/15 02:19:48;;;;;;;;;;;20.70;99.90;;;;;;2047398;28;20381;-83
2023/08/15 02:20:50;;;;;;;;;;;20.80;99.90;;;;;;2059635;28;19918;-83
2023/08/15 02:21:51;;;;;;;;;;;20.80;99.90;;;;;;2059447;28;19917;-82
2023/08/15 02:22:51;;;;;;;;;;;20.80;99.90;;;;;;2061352;28;20293;-82
2023/08/15 02:23:52;;;;;;;;;;;20.80;99.90;;;;;;2060418;28;19921;-82
2023/08/15 02:24:53;;;;;;;;;;;20.80;99.90;;;;;;2046837;28;19918;-82
2023/08/15 02:25:53;;;;;;;;;;;20.70;99.90;;;;;;2043332;29;19915;-82
2023/08/15 02:26:54;;;;;;;;;;;20.80;99.90;;;;;;2054839;28;20048;-82
2023/08/15 02:27:54;;;;;;;;;;;20.80;99.90;;;;;;2053144;28;20389;-83
2023/08/15 02:28:56;;;;;;;;;;;20.80;99.90;;;;;;2056661;28;19917;-83
2023/08/15 02:29:57;;;;;;;;;;;20.80;99.90;;;;;;2058152;28;20412;-82
2023/08/15 02:30:57;;;;;;;;;;;20.80;99.90;;;;;;2051181;28;20024;-81
2023/08/15 02:31:58;;;;;;;;;;;20.80;99.90;;;;;;2053360;28;19969;-82
2023/08/15 02:32:59;;;;;;;;;;;20.80;99.90;;;;;;2054914;28;19928;-83
2023/08/15 02:34:00;;;;;;;;;;;20.80;99.90;;;;;;2058291;28;19917;-82
2023/08/15 02:35:00;;;;;;;;;;;20.80;99.90;;;;;;2051286;28;20060;-82
2023/08/15 02:36:06;;;;;;;;;;;20.70;99.90;;;;;;2047524;28;19957;-82
2023/08/15 02:37:07;;;;;;;;;;;20.80;99.90;;;;;;2053972;28;20062;-80
2023/08/15 02:38:08;;;;;;;;;;;20.70;99.90;;;;;;2057151;28;19934;-81
2023/08/15 02:39:08;;;;;;;;;;;20.70;99.90;;;;;;2048032;28;20451;-82
2023/08/15 02:40:09;;;;;;;;;;;20.70;99.90;;;;;;2041550;28;19922;-82
2023/08/15 02:41:10;;;;;;;;;;;20.70;99.90;;;;;;2053513;28;20337;-82
2023/08/15 02:42:10;;;;;;;;;;;20.70;99.90;;;;;;2048855;28;19933;-82
2023/08/15 02:43:12;;;;;;;;;;;20.70;99.90;;;;;;2046446;28;19918;-82
2023/08/15 02:44:12;;;;;;;;;;;20.70;99.90;;;;;;2058625;28;19914;-81
2023/08/15 02:45:13;;;;;;;;;;;20.70;99.90;;;;;;2047280;28;19919;-82
2023/08/15 02:46:13;;;;;;;;;;;20.70;99.90;;;;;;2053321;28;20475;-82
2023/08/15 02:47:14;;;;;;;;;;;20.70;99.90;;;;;;2054748;28;19918;-82
2023/08/15 02:48:14;;;;;;;;;;;20.70;99.90;;;;;;2056396;28;20419;-82
2023/08/15 02:49:15;;;;;;;;;;;20.70;99.90;;;;;;2061417;28;19953;-83
2023/08/15 02:50:16;;;;;;;;;;;20.70;99.90;;;;;;2059658;28;19922;-83
2023/08/15 02:51:16;;;;;;;;;;;20.70;99.90;;;;;;2058914;28;19921;-82
2023/08/15 02:52:17;;;;;;;;;;;20.70;99.90;;;;;;2057863;28;20021;-82
2023/08/15 02:53:17;;;;;;;;;;;20.60;99.90;;;;;;2048549;28;19948;-81
2023/08/15 02:54:17;;;;;;;;;;;20.60;99.90;;;;;;2053330;28;20001;-82
2023/08/15 02:55:18;;;;;;;;;;;20.70;99.90;;;;;;2059271;28;19922;-83
2023/08/15 02:56:18;;;;;;;;;;;20.70;99.90;;;;;;2054624;28;20145;-83
2023/08/15 02:57:19;;;;;;;;;;;20.70;99.90;;;;;;2054584;28;20385;-81
2023/08/15 02:58:19;;;;;;;;;;;20.60;99.90;;;;;;2061519;28;19945;-83
2023/08/15 02:59:20;;;;;;;;;;;20.60;99.90;;;;;;2059437;28;19918;-83
2023/08/15 03:00:21;;;;;;;;;;;20.60;99.90;;;;;;2055015;28;19925;-83
2023/08/15 03:01:23;;;;;;;;;;;20.60;99.90;;;;;;2043043;28;19918;-83
2023/08/15 03:02:24;;;;;;;;;;;20.60;99.90;;;;;;2047013;28;19926;-82
2023/08/15 03:03:25;;;;;;;;;;;20.60;99.90;;;;;;2055254;28;19922;-82
2023/08/15 03:04:26;;;;;;;;;;;20.60;99.90;;;;;;2060951;28;19918;-83
2023/08/15 03:05:26;;;;;;;;;;;20.60;99.90;;;;;;2059873;28;19973;-83
2023/08/15 03:06:27;;;;;;;;;;;20.60;99.90;;;;;;2059425;28;20321;-83
2023/08/15 03:07:27;;;;;;;;;;;20.60;99.90;;;;;;2048918;28;20429;-84
2023/08/15 03:08:28;;;;;;;;;;;20.60;99.90;;;;;;2050877;28;19945;-81
2023/08/15 03:09:29;;;;;;;;;;;20.60;99.90;;;;;;2050414;28;19922;-83
2023/08/15 03:10:32;;;;;;;;;;;20.60;99.90;;;;;;2055361;28;20326;-82
2023/08/15 03:11:32;;;;;;;;;;;20.60;99.90;;;;;;2060400;28;19918;-82
2023/08/15 03:12:33;;;;;;;;;;;20.60;99.90;;;;;;2061073;28;20014;-82
2023/08/15 03:13:34;;;;;;;;;;;20.60;99.90;;;;;;2050643;28;20486;-81
2023/08/15 03:14:34;;;;;;;;;;;20.50;99.90;;;;;;2050575;28;19950;-83
2023/08/15 03:15:36;;;;;;;;;;;20.50;99.90;;;;;;2048151;28;19937;-82
2023/08/15 03:16:36;;;;;;;;;;;20.50;99.90;;;;;;2045322;28;19961;-81
2023/08/15 03:17:37;;;;;;;;;;;20.50;99.90;;;;;;2058764;28;19913;-80
2023/08/15 03:18:37;;;;;;;;;;;20.50;99.90;;;;;;2053808;28;19922;-81
2023/08/15 03:19:38;;;;;;;;;;;20.50;99.90;;;;;;2051392;28;19997;-81
2023/08/15 03:20:38;;;;;;;;;;;20.60;99.90;;;;;;2043413;29;19914;-81
2023/08/15 03:21:39;;;;;;;;;;;20.50;99.90;;;;;;2053438;28;19961;-81
2023/08/15 03:22:41;;;;;;;;;;;20.50;99.90;;;;;;2049398;28;20551;-82
2023/08/15 03:23:41;;;;;;;;;;;20.50;99.90;;;;;;2045485;28;19931;-81
2023/08/15 03:24:42;;;;;;;;;;;20.50;99.90;;;;;;2059941;28;20313;-81
2023/08/15 03:25:43;;;;;;;;;;;20.50;99.90;;;;;;2053105;28;20016;-80
2023/08/15 03:26:44;;;;;;;;;;;20.50;99.90;;;;;;2043240;28;19970;-82
2023/08/15 03:27:45;;;;;;;;;;;20.50;99.90;;;;;;2050550;28;20496;-82
2023/08/15 03:28:46;;;;;;;;;;;20.50;99.90;;;;;;2055104;28;19922;-82
2023/08/15 03:29:47;;;;;;;;;;;20.50;99.90;;;;;;2059426;28;20036;-81
2023/08/15 03:30:48;;;;;;;;;;;20.50;99.90;;;;;;2057623;28;19953;-81
2023/08/15 03:31:48;;;;;;;;;;;20.50;99.90;;;;;;2059040;28;19928;-81
2023/08/15 03:32:49;;;;;;;;;;;20.50;99.90;;;;;;2036721;28;19915;-81
2023/08/15 03:33:51;;;;;;;;;;;20.50;99.90;;;;;;2048986;28;19945;-81
2023/08/15 03:34:52;;;;;;;;;;;20.50;99.90;;;;;;2052765;28;19934;-81
2023/08/15 03:35:52;;;;;;;;;;;20.50;99.90;;;;;;2051053;28;20424;-81
2023/08/15 03:36:53;;;;;;;;;;;20.50;99.90;;;;;;2051078;28;19985;-80
2023/08/15 03:37:54;;;;;;;;;;;20.50;99.90;;;;;;2050311;28;19968;-81
2023/08/15 03:38:55;;;;;;;;;;;20.50;99.90;;;;;;2055611;28;20374;-82
2023/08/15 03:39:56;;;;;;;;;;;20.50;99.90;;;;;;2051685;28;20385;-79
2023/08/15 03:41:04;;;;;;;;;;;20.50;99.90;;;;;;2070488;28;19947;-82
2023/08/15 03:42:04;;;;;;;;;;;20.50;99.90;;;;;;2069335;28;19902;-81
2023/08/15 03:43:05;;;;;;;;;;;20.50;99.90;;;;;;2069425;28;20403;-81
2023/08/15 03:44:07;;;;;;;;;;;20.50;99.90;;;;;;2064502;28;19937;-81
2023/08/15 03:45:08;;;;;;;;;;;20.50;99.90;;;;;;2060629;28;19924;-81
2023/08/15 03:46:08;;;;;;;;;;;20.50;99.90;;;;;;2068820;28;19917;-81
2023/08/15 03:47:09;;;;;;;;;;;20.50;99.90;;;;;;2053408;28;19908;-81
2023/08/15 03:48:10;;;;;;;;;;;20.50;99.90;;;;;;2063713;28;19942;-82
2023/08/15 03:49:10;;;;;;;;;;;20.40;99.90;;;;;;2069366;28;19906;-80
2023/08/15 03:50:11;;;;;;;;;;;20.50;99.90;;;;;;2067644;28;19906;-81
2023/08/15 03:51:11;;;;;;;;;;;20.50;99.90;;;;;;2058724;28;19985;-81
2023/08/15 03:52:12;;;;;;;;;;;20.50;99.90;;;;;;2056542;28;19922;-81
2023/08/15 03:53:12;;;;;;;;;;;20.50;99.90;;;;;;2061104;28;20246;-82
2023/08/15 03:54:13;;;;;;;;;;;20.40;99.90;;;;;;2055662;28;19914;-81
2023/08/15 03:55:14;;;;;;;;;;;20.40;99.90;;;;;;2051357;28;19914;-81
2023/08/15 03:56:14;;;;;;;;;;;20.40;99.90;;;;;;2057144;28;19972;-81
2023/08/15 03:57:15;;;;;;;;;;;20.40;99.90;;;;;;2049819;28;19960;-81
2023/08/15 03:58:17;;;;;;;;;;;20.40;99.90;;;;;;2041928;28;19923;-81
2023/08/15 03:59:18;;;;;;;;;;;20.40;99.90;;;;;;2054257;28;20416;-80
2023/08/15 04:00:18;;;;;;;;;;;20.40;99.90;;;;;;2048875;28;19997;-82
2023/08/15 04:01:19;;;;;;;;;;;20.40;99.90;;;;;;2055364;28;20340;-81
2023/08/15 04:02:20;;;;;;;;;;;20.40;99.90;;;;;;2049826;28;20447;-81
2023/08/15 04:03:20;;;;;;;;;;;20.40;99.90;;;;;;2050724;28;20251;-81
2023/08/15 04:04:21;;;;;;;;;;;20.40;99.90;;;;;;2052688;28;20373;-81
2023/08/15 04:05:23;;;;;;;;;;;20.40;99.90;;;;;;2059525;28;20297;-81
2023/08/15 04:06:24;;;;;;;;;;;20.40;99.90;;;;;;2050713;28;19914;-81
2023/08/15 04:07:25;;;;;;;;;;;20.40;99.90;;;;;;2041482;28;19922;-81
2023/08/15 04:08:25;;;;;;;;;;;20.50;99.90;;;;;;2054696;28;19925;-80
2023/08/15 04:09:26;;;;;;;;;;;20.50;99.90;;;;;;2052469;28;19933;-81
2023/08/15 04:10:27;;;;;;;;;;;20.50;99.90;;;;;;2054517;28;20005;-82
2023/08/15 04:11:27;;;;;;;;;;;20.50;99.90;;;;;;2058217;28;19918;-82
2023/08/15 04:12:28;;;;;;;;;;;20.50;99.90;;;;;;2050290;28;19918;-82
2023/08/15 04:13:30;;;;;;;;;;;20.50;99.90;;;;;;2045002;28;19915;-82
2023/08/15 04:14:30;;;;;;;;;;;20.50;99.90;;;;;;2047655;28;20563;-81
2023/08/15 04:15:31;;;;;;;;;;;20.50;99.90;;;;;;2049106;28;19926;-82
2023/08/15 04:16:32;;;;;;;;;;;20.50;99.90;;;;;;2047340;28;20421;-82
2023/08/15 04:17:32;;;;;;;;;;;20.50;99.90;;;;;;2055578;28;19953;-82
2023/08/15 04:18:35;;;;;;;;;;;20.50;99.90;;;;;;2060288;28;19918;-83
2023/08/15 04:19:35;;;;;;;;;;;20.50;99.90;;;;;;2058477;28;19949;-83
2023/08/15 04:20:37;;;;;;;;;;;20.50;99.90;;;;;;2066017;28;19937;-82
2023/08/15 04:21:39;;;;;;;;;;;20.50;99.90;;;;;;2046213;28;19911;-81
2023/08/15 04:22:40;;;;;;;;;;;20.60;99.90;;;;;;2048592;28;19924;-83
2023/08/15 04:23:40;;;;;;;;;;;20.50;99.90;;;;;;2042755;28;19921;-82
2023/08/15 04:24:41;;;;;;;;;;;20.60;99.90;;;;;;2057254;28;19914;-82
2023/08/15 04:25:41;;;;;;;;;;;20.60;99.90;;;;;;2053625;28;19914;-82
2023/08/15 04:26:42;;;;;;;;;;;20.60;99.90;;;;;;2055141;28;19972;-82
2023/08/15 04:27:43;;;;;;;;;;;20.60;99.90;;;;;;2056761;28;20455;-83
2023/08/15 04:28:46;;;;;;;;;;;20.60;99.90;;;;;;2045932;28;19972;-82
2023/08/15 04:29:47;;;;;;;;;;;20.70;99.90;;;;;;2051146;28;19926;-80
2023/08/15 04:30:47;;;;;;;;;;;20.70;99.90;;;;;;2051828;28;20389;-83
2023/08/15 04:31:48;;;;;;;;;;;20.70;99.90;;;;;;2042845;28;20152;-81
2023/08/15 04:32:49;;;;;;;;;;;20.70;99.90;;;;;;2047527;28;19914;-83
2023/08/15 04:33:49;;;;;;;;;;;20.70;99.90;;;;;;2042593;28;20469;-82
2023/08/15 04:34:50;;;;;;;;;;;20.80;99.90;;;;;;2051699;28;19996;-83
2023/08/15 04:35:51;;;;;;;;;;;20.80;99.90;;;;;;2046357;28;20013;-80
2023/08/15 04:36:52;;;;;;;;;;;20.80;99.90;;;;;;2052955;28;20025;-81
2023/08/15 04:37:52;;;;;;;;;;;20.90;99.90;;;;;;2051784;28;20337;-82
2023/08/15 04:38:54;;;;;;;;;;;20.90;99.90;;;;;;2043080;28;20560;-82
2023/08/15 04:39:54;;;;;;;;;;;20.90;99.90;;;;;;2046031;28;19914;-82
2023/08/15 04:40:55;;;;;;;;;;;20.90;99.90;;;;;;2050295;28;19914;-81
2023/08/15 04:41:55;;;;;;;;;;;21.10;99.90;;;;;;2058563;28;19925;-81
2023/08/15 04:42:56;;;;;;;;;;;21.10;99.90;;;;;;2058473;28;19926;-82
2023/08/15 04:43:57;;;;;;;;;;;21.10;99.90;;;;;;2058469;28;20028;-82
2023/08/15 04:44:57;;;;;;;;;;;21.20;99.90;;;;;;2050693;28;20293;-81
2023/08/15 04:45:58;;;;;;;;;;;21.20;99.90;;;;;;2060411;28;20017;-83
2023/08/15 04:46:59;;;;;;;;;;;21.30;99.90;;;;;;2051875;28;19925;-82
2023/08/15 04:48:00;;;;;;;;;;;21.40;99.90;;;;;;2046462;28;19965;-81
2023/08/15 04:49:00;;;;;;;;;;;21.30;99.90;;;;;;2054762;28;20004;-81
2023/08/15 04:50:01;;;;;;;;;;;21.50;99.90;;;;;;2060001;28;19929;-82
2023/08/15 04:51:02;;;;;;;;;;;21.60;99.90;;;;;;2053189;28;19917;-81
2023/08/15 04:52:03;;;;;;;;;;;21.70;99.90;;;;;;2044071;28;19929;-82
2023/08/15 04:53:03;;;;;;;;;;;21.90;99.90;;;;;;2055767;28;19917;-81
2023/08/15 04:54:04;;;;;;;;;;;22.00;99.90;;;;;;2060224;28;19921;-81
2023/08/15 04:55:05;;;;;;;;;;;22.20;99.90;;;;;;2050266;28;19929;-83
2023/08/15 04:56:06;;;;;;;;;;;22.30;99.90;;;;;;2050347;28;20506;-82
2023/08/15 04:57:06;;;;;;;;;;;22.40;99.90;;;;;;2050925;28;19914;-81
2023/08/15 04:58:09;;;;;;;;;;;22.40;99.90;;;;;;2060007;28;19990;-84
2023/08/15 04:59:09;;;;;;;;;;;22.40;99.90;;;;;;2058433;28;19922;-82
2023/08/15 05:00:11;;;;;;;;;;;22.50;99.90;;;;;;2058357;28;20401;-83
2023/08/15 05:01:12;;;;;;;;;;;22.50;99.90;;;;;;2060055;28;20457;-82
2023/08/15 05:02:13;;;;;;;;;;;22.50;99.90;;;;;;2049565;28;19918;-82
2023/08/15 05:03:13;;;;;;;;;;;22.50;99.90;;;;;;2052207;28;19999;-81
2023/08/15 05:04:14;;;;;;;;;;;22.60;99.90;;;;;;2058608;28;19987;-79
2023/08/15 05:05:14;;;;;;;;;;;22.80;99.90;;;;;;2056389;28;19918;-82
2023/08/15 05:06:15;;;;;;;;;;;23.00;99.90;;;;;;2060336;28;19925;-84
2023/08/15 05:07:16;;;;;;;;;;;23.20;99.90;;;;;;2060500;28;20396;-84
2023/08/15 05:08:17;;;;;;;;;;;23.50;99.90;;;;;;2058564;28;19918;-78
2023/08/15 05:09:17;;;;;;;;;;;23.70;99.90;;;;;;2048945;28;19918;-81
2023/08/15 05:10:18;;;;;;;;;;;24.00;99.90;;;;;;2042706;28;19920;-81
2023/08/15 05:11:19;;;;;;;;;;;24.10;99.90;;;;;;2047335;28;20424;-83
2023/08/15 05:12:19;;;;;;;;;;;24.40;99.90;;;;;;2048852;28;19926;-85
2023/08/15 05:13:20;;;;;;;;;;;24.60;99.90;;;;;;2040623;29;20136;-81
2023/08/15 05:14:22;;;;;;;;;;;24.70;99.90;;;;;;2042652;28;19919;-86
2023/08/15 05:15:23;;;;;;;;;;;24.90;99.90;;;;;;2051958;28;20349;-81
2023/08/15 05:16:23;;;;;;;;;;;25.00;99.90;;;;;;2043866;28;20003;-82
2023/08/15 05:17:24;;;;;;;;;;;25.20;99.90;;;;;;2047837;28;19914;-83
2023/08/15 05:18:24;;;;;;;;;;;25.30;99.90;;;;;;2052214;28;20385;-76
2023/08/15 05:19:25;;;;;;;;;;;25.40;99.90;;;;;;2047521;28;19922;-74
2023/08/15 05:20:26;;;;;;;;;;;25.50;99.90;;;;;;2046704;28;19922;-83
2023/08/15 05:21:28;;;;;;;;;;;25.70;99.90;;;;;;2058467;28;19917;-83
2023/08/15 05:22:28;;;;;;;;;;;25.80;99.90;;;;;;2057099;28;19918;-82
2023/08/15 05:23:28;;;;;;;;;;;25.90;99.90;;;;;;2047346;28;20034;-81
2023/08/15 05:24:29;;;;;;;;;;;26.00;99.90;;;;;;2051789;28;19957;-82
2023/08/15 05:25:30;;;;;;;;;;;26.00;99.90;;;;;;2059922;28;20005;-75
2023/08/15 05:26:33;;;;;;;;;;;26.10;99.90;;;;;;2051263;28;20013;-83
2023/08/15 05:27:33;;;;;;;;;;;26.20;99.90;;;;;;2049802;28;19949;-84
2023/08/15 05:28:34;;;;;;;;;;;26.30;99.90;;;;;;2058072;28;19917;-84
2023/08/15 05:29:34;;;;;;;;;;;26.40;99.90;;;;;;2062943;28;19960;-79
2023/08/15 05:30:35;;;;;;;;;;;26.50;99.90;;;;;;2057409;28;20327;-77
2023/08/15 05:31:36;;;;;;;;;;;26.60;99.90;;;;;;2046692;28;19993;-77
2023/08/15 05:32:36;;;;;;;;;;;26.60;99.90;;;;;;2038449;28;19926;-76
2023/08/15 05:33:37;;;;;;;;;;;26.80;99.90;;;;;;2056679;28;19944;-78
2023/08/15 05:34:38;;;;;;;;;;;26.80;99.90;;;;;;2059449;28;19914;-74
2023/08/15 05:35:39;;;;;;;;;;;26.90;99.90;;;;;;2051755;28;19976;-74
2023/08/15 05:36:40;;;;;;;;;;;26.90;99.90;;;;;;2052081;28;20027;-84
2023/08/15 05:37:40;;;;;;;;;;;26.90;99.90;;;;;;2059304;28;20027;-89
2023/08/15 05:38:42;;;;;;;;;;;27.00;99.90;;;;;;2046973;28;19914;-83
2023/08/15 05:39:42;;;;;;;;;;;27.10;99.90;;;;;;2041784;28;19962;-83
2023/08/15 05:40:43;;;;;;;;;;;27.00;99.90;;;;;;2051933;28;19922;-80
2023/08/15 05:41:44;;;;;;;;;;;27.10;99.90;;;;;;2058531;28;19946;-76
2023/08/15 05:42:44;;;;;;;;;;;27.10;99.90;;;;;;2059963;28;20008;-82
2023/08/15 05:43:45;;;;;;;;;;;27.40;99.90;;;;;;2057555;28;20381;-83
2023/08/15 05:44:46;;;;;;;;;;;27.50;99.90;;;;;;2038213;29;20573;-78
2023/08/15 05:45:48;;;;;;;;;;;27.70;99.90;;;;;;2045162;28;19927;-77
2023/08/15 05:46:48;;;;;;;;;;;27.70;99.90;;;;;;2054846;28;19918;-78
2023/08/15 05:47:49;;;;;;;;;;;27.60;99.90;;;;;;2060106;28;19914;-76
2023/08/15 05:48:49;;;;;;;;;;;27.60;99.90;;;;;;2062305;28;19925;-78
2023/08/15 05:49:50;;;;;;;;;;;27.60;99.90;;;;;;2051308;28;19918;-75
2023/08/15 05:50:50;;;;;;;;;;;27.60;99.90;;;;;;2051234;28;19914;-78
2023/08/15 05:51:52;;;;;;;;;;;27.70;99.90;;;;;;2058989;28;19942;-75
2023/08/15 05:52:53;;;;;;;;;;;27.70;99.90;;;;;;2059586;28;20381;-78
2023/08/15 05:53:53;;;;;;;;;;;27.70;99.90;;;;;;2061736;28;19913;-81
2023/08/15 05:54:55;;;;;;;;;;;27.70;99.90;;;;;;2059897;28;19992;-82